Time;durP1;ratioP1;P1;durP2;ratioP2;P2;SDS_P1;SDS_P2;PMS_P1;PMS_P2;Temp;Humidity;BMP_temperature;BMP_pressure;BME280_temperature;BME280_humidity;BME280_pressure;Samples;Min_cycle;Max_cycle;Signal;HPM_P1;HPM_P2
2024/01/16 00:02:15;;;;;;;39.53;21.17;;;102.60;2227.20;;;;;;5091118;28;20051;-76
2024/01/16 00:04:41;;;;;;;68.78;35.63;;;102.60;2227.20;;;;;;5085805;28;20123;-76
2024/01/16 00:07:06;;;;;;;206.80;105.45;;;102.80;2227.20;;;;;;5091541;28;20024;-74
2024/01/16 00:09:35;;;;;;;204.23;111.22;;;102.90;2227.20;;;;;;5084275;28;20408;-76
2024/01/16 00:12:03;;;;;;;89.22;49.85;;;102.50;2227.20;;;;;;5091365;28;20052;-74
2024/01/16 00:14:29;;;;;;;143.15;90.35;;;103.10;2227.20;;;;;;5090895;28;20016;-75
2024/01/16 00:16:55;;;;;;;93.22;56.97;;;103.10;2227.20;;;;;;5090896;28;20111;-76
2024/01/16 00:19:21;;;;;;;147.60;98.05;;;103.10;2227.20;;;;;;5088147;28;20036;-77
2024/01/16 00:21:47;;;;;;;46.60;29.02;;;103.20;2227.20;;;;;;5089498;28;20040;-74
2024/01/16 00:24:13;;;;;;;43.92;28.75;;;103.20;2227.20;;;;;;5091444;28;20069;-76
2024/01/16 00:26:39;;;;;;;103.63;62.50;;;103.30;2227.20;;;;;;5078781;28;20082;-76
2024/01/16 00:29:05;;;;;;;75.32;47.13;;;103.20;2227.20;;;;;;5077396;28;20077;-76
2024/01/16 00:31:31;;;;;;;81.30;54.63;;;103.30;2227.20;;;;;;5090917;28;20433;-75
2024/01/16 00:33:57;;;;;;;63.05;39.13;;;128.00;2252.80;;;;;;5090581;28;20058;-75
2024/01/16 00:36:23;;;;;;;50.83;31.00;;;128.00;2252.80;;;;;;5090401;28;20028;-73
2024/01/16 00:38:49;;;;;;;41.00;25.17;;;103.30;2227.20;;;;;;5088734;28;20036;-76
2024/01/16 00:41:14;;;;;;;38.53;24.38;;;103.10;2227.20;;;;;;5090911;28;20024;-76
2024/01/16 00:43:41;;;;;;;50.90;31.23;;;102.80;2227.20;;;;;;5090609;28;20047;-77
2024/01/16 00:46:07;;;;;;;113.00;65.68;;;102.90;2227.20;;;;;;5090817;28;20492;-76
2024/01/16 00:48:33;;;;;;;70.35;43.85;;;103.00;2227.20;;;;;;5085230;28;20016;-76
2024/01/16 00:50:59;;;;;;;61.13;35.28;;;103.10;2227.20;;;;;;5082288;28;20097;-77
2024/01/16 00:53:27;;;;;;;39.28;21.40;;;102.80;2227.20;;;;;;5077049;28;20016;-75
2024/01/16 00:55:54;;;;;;;23.73;14.02;;;102.80;2227.20;;;;;;5090852;28;20024;-75
2024/01/16 00:58:21;;;;;;;17.77;11.95;;;102.80;2227.20;;;;;;5090588;28;20048;-75
2024/01/16 01:00:47;;;;;;;11.60;10.05;;;102.60;2227.20;;;;;;5089641;28;20028;-75
2024/01/16 01:03:13;;;;;;;16.15;10.65;;;102.80;2227.20;;;;;;5082939;28;20441;-75
2024/01/16 01:05:38;;;;;;;156.57;65.05;;;102.90;2227.20;;;;;;5082939;28;20048;-76
2024/01/16 01:08:05;;;;;;;19.85;12.43;;;103.00;2227.20;;;;;;5069787;28;20457;-75
2024/01/16 01:10:30;;;;;;;13.65;8.88;;;102.90;2227.20;;;;;;5082427;28;20057;-75
2024/01/16 01:12:56;;;;;;;10.77;6.07;;;102.80;2227.20;;;;;;5090657;28;20027;-76
2024/01/16 01:15:22;;;;;;;12.02;7.60;;;102.80;2227.20;;;;;;5090411;28;20089;-76
2024/01/16 01:17:51;;;;;;;15.57;9.18;;;102.80;2227.20;;;;;;5089683;28;20023;-76
2024/01/16 01:20:18;;;;;;;25.98;16.60;;;102.80;2227.20;;;;;;5077405;28;20079;-75
2024/01/16 01:22:44;;;;;;;30.10;19.58;;;102.80;2227.20;;;;;;5088562;28;20378;-76
2024/01/16 01:25:11;;;;;;;29.23;22.55;;;102.60;2227.20;;;;;;5089823;28;20119;-75
2024/01/16 01:27:40;;;;;;;34.25;21.88;;;102.70;2227.20;;;;;;5090068;28;20480;-75
2024/01/16 01:30:12;;;;;;;20.30;12.98;;;102.60;2227.20;;;;;;5089491;28;20031;-74
2024/01/16 01:32:39;;;;;;;16.97;11.03;;;102.50;2227.20;;;;;;5078104;28;20020;-76
2024/01/16 01:35:05;;;;;;;20.67;11.38;;;102.40;2227.20;;;;;;5088477;28;20035;-74
2024/01/16 01:37:31;;;;;;;20.30;11.10;;;77.70;2227.20;;;;;;5069824;28;20025;-75
2024/01/16 01:39:57;;;;;;;20.38;11.38;;;77.60;2227.20;;;;;;5084911;28;20107;-75
2024/01/16 01:42:23;;;;;;;14.63;8.43;;;77.70;2227.20;;;;;;5090196;28;20031;-75
2024/01/16 01:44:49;;;;;;;6.65;4.43;;;77.60;2227.20;;;;;;5089369;28;20111;-74
2024/01/16 01:47:15;;;;;;;6.82;3.85;;;77.70;2227.20;;;;;;5089818;28;20146;-75
2024/01/16 01:49:41;;;;;;;12.85;7.88;;;102.40;2227.20;;;;;;5089631;28;20433;-75
2024/01/16 01:52:08;;;;;;;7.07;4.20;;;77.70;2227.20;;;;;;5089976;28;20032;-75
2024/01/16 01:54:36;;;;;;;11.88;6.63;;;102.40;2227.20;;;;;;5089413;28;20016;-75
2024/01/16 01:57:02;;;;;;;29.73;14.30;;;102.40;2227.20;;;;;;5089620;28;20542;-75
2024/01/16 01:59:30;;;;;;;7.78;4.05;;;102.50;2227.20;;;;;;5089315;28;20016;-74
2024/01/16 02:01:56;;;;;;;8.32;5.38;;;102.60;2227.20;;;;;;5089469;28;20466;-75
2024/01/16 02:04:24;;;;;;;20.27;13.05;;;102.50;2227.20;;;;;;5089176;28;20048;-75
2024/01/16 02:06:50;;;;;;;8.07;4.63;;;102.60;2227.20;;;;;;5089353;28;20103;-76
2024/01/16 02:09:16;;;;;;;10.18;5.82;;;102.60;2227.20;;;;;;5089245;28;20103;-76
2024/01/16 02:11:42;;;;;;;12.77;7.97;;;102.60;2227.20;;;;;;5079068;28;20064;-75
2024/01/16 02:14:09;;;;;;;38.35;21.70;;;102.60;2227.20;;;;;;5085819;28;20458;-75
2024/01/16 02:16:39;;;;;;;22.75;13.95;;;102.80;2227.20;;;;;;5089379;28;20024;-75
2024/01/16 02:19:06;;;;;;;34.55;20.20;;;102.90;2227.20;;;;;;5089021;28;20386;-76
2024/01/16 02:21:39;;;;;;;30.77;19.50;;;102.90;2227.20;;;;;;5089491;28;20032;-76
2024/01/16 02:24:07;;;;;;;38.83;20.73;;;102.80;2227.20;;;;;;5089085;28;20118;-74
2024/01/16 02:26:33;;;;;;;18.58;12.20;;;103.10;2227.20;;;;;;5087835;28;20162;-76
2024/01/16 02:29:02;;;;;;;45.13;25.52;;;102.80;2227.20;;;;;;5083813;28;20024;-76
2024/01/16 02:31:28;;;;;;;36.15;21.20;;;102.90;2227.20;;;;;;5080504;28;20028;-76
2024/01/16 02:33:53;;;;;;;8.60;5.55;;;102.70;2227.20;;;;;;5084283;28;20028;-77
2024/01/16 02:36:19;;;;;;;111.32;58.50;;;102.70;2227.20;;;;;;5068830;28;20043;-75
2024/01/16 02:38:45;;;;;;;127.50;62.70;;;102.40;2227.20;;;;;;5087147;28;20438;-76
2024/01/16 02:41:14;;;;;;;57.85;31.55;;;102.60;2227.20;;;;;;5076003;28;20040;-76
2024/01/16 02:43:39;;;;;;;31.90;16.80;;;102.60;2227.20;;;;;;5074044;28;20350;-75
2024/01/16 02:46:05;;;;;;;9.70;6.18;;;102.70;2227.20;;;;;;5077108;28;20037;-75
2024/01/16 02:48:31;;;;;;;15.93;10.35;;;102.60;2227.20;;;;;;5072196;28;20032;-77
2024/01/16 02:50:56;;;;;;;34.33;22.80;;;102.60;2227.20;;;;;;5077184;28;20107;-76
2024/01/16 02:53:22;;;;;;;33.25;20.48;;;102.80;2227.20;;;;;;5069040;28;20032;-76
2024/01/16 02:55:48;;;;;;;33.85;20.75;;;102.80;2227.20;;;;;;5080609;28;20027;-76
2024/01/16 02:58:14;;;;;;;27.98;15.25;;;102.70;2227.20;;;;;;5089029;28;20020;-75
2024/01/16 03:00:39;;;;;;;61.97;37.47;;;102.70;2227.20;;;;;;5088758;28;20119;-76
2024/01/16 03:03:05;;;;;;;42.70;23.80;;;102.70;2227.20;;;;;;5083000;28;20044;-75
2024/01/16 03:05:31;;;;;;;39.72;24.75;;;102.80;2227.20;;;;;;5080998;28;20068;-76
2024/01/16 03:07:57;;;;;;;25.52;17.15;;;102.90;2227.20;;;;;;5088923;28;20059;-73
2024/01/16 03:10:23;;;;;;;17.08;11.77;;;102.90;2227.20;;;;;;5088907;28;20024;-78
2024/01/16 03:12:48;;;;;;;29.00;18.17;;;102.80;2227.20;;;;;;5088663;28;20560;-76
2024/01/16 03:15:14;;;;;;;21.83;15.13;;;102.80;2227.20;;;;;;5088585;28;20107;-76
2024/01/16 03:17:40;;;;;;;27.00;18.75;;;102.80;2227.20;;;;;;5068759;28;20013;-78
2024/01/16 03:20:06;;;;;;;29.73;17.55;;;102.80;2227.20;;;;;;5081659;28;20122;-76
2024/01/16 03:22:32;;;;;;;11.98;7.95;;;102.90;2227.20;;;;;;5075129;28;20020;-77
2024/01/16 03:24:58;;;;;;;12.35;9.27;;;102.90;2227.20;;;;;;5074378;28;20115;-76
2024/01/16 03:27:24;;;;;;;33.53;28.70;;;102.90;2227.20;;;;;;5073407;28;20016;-77
2024/01/16 03:29:49;;;;;;;16.23;11.45;;;102.90;2227.20;;;;;;5088414;28;20020;-76
2024/01/16 03:32:15;;;;;;;9.98;5.35;;;102.80;2227.20;;;;;;5088370;28;20122;-76
2024/01/16 03:34:41;;;;;;;10.27;7.03;;;102.80;2227.20;;;;;;5088330;28;20039;-75
2024/01/16 03:37:07;;;;;;;20.98;11.95;;;102.50;2227.20;;;;;;5088361;28;20051;-75
2024/01/16 03:39:32;;;;;;;34.30;18.80;;;102.50;2227.20;;;;;;5076996;28;20068;-75
2024/01/16 03:41:58;;;;;;;86.70;43.63;;;102.50;2227.20;;;;;;5088674;28;20075;-75
2024/01/16 03:44:24;;;;;;;53.78;30.67;;;102.50;2227.20;;;;;;5092231;28;20027;-76
2024/01/16 03:46:50;;;;;;;123.03;59.20;;;102.50;2227.20;;;;;;5090441;28;20032;-75
2024/01/16 03:49:15;;;;;;;16.23;9.32;;;102.60;2227.20;;;;;;5080379;28;20021;-76
2024/01/16 03:51:46;;;;;;;5.90;3.92;;;102.60;2227.20;;;;;;5089731;28;20028;-77
2024/01/16 03:54:13;;;;;;;17.80;8.25;;;102.60;2227.20;;;;;;5078529;28;20037;-76
2024/01/16 03:56:40;;;;;;;20.77;10.95;;;102.60;2227.20;;;;;;5089001;28;20032;-76
2024/01/16 03:59:06;;;;;;;24.17;15.80;;;102.70;2227.20;;;;;;5091946;28;20028;-75
2024/01/16 04:01:32;;;;;;;22.48;15.25;;;102.70;2227.20;;;;;;5091669;28;20069;-76
2024/01/16 04:03:58;;;;;;;15.52;10.85;;;102.70;2227.20;;;;;;5091114;28;20105;-75
2024/01/16 04:06:24;;;;;;;8.60;5.75;;;102.70;2227.20;;;;;;5091539;28;20036;-75
2024/01/16 04:08:50;;;;;;;5.38;3.35;;;102.60;2227.20;;;;;;5091415;28;20416;-75
2024/01/16 04:11:16;;;;;;;6.78;6.07;;;102.60;2227.20;;;;;;5091586;28;20382;-74
2024/01/16 04:13:42;;;;;;;6.57;3.65;;;102.70;2227.20;;;;;;5091638;28;20028;-75
2024/01/16 04:16:08;;;;;;;6.93;3.95;;;102.70;2227.20;;;;;;5091427;28;20450;-77
2024/01/16 04:18:39;;;;;;;8.98;6.20;;;102.70;2227.20;;;;;;5091163;28;20046;-76
2024/01/16 04:21:06;;;;;;;15.57;9.57;;;102.80;2227.20;;;;;;5084815;28;20020;-76
2024/01/16 04:23:32;;;;;;;8.93;6.35;;;102.80;2227.20;;;;;;5084666;28;20319;-76
2024/01/16 04:25:58;;;;;;;8.73;4.78;;;102.90;2227.20;;;;;;5070789;28;20059;-74
2024/01/16 04:28:24;;;;;;;12.43;8.52;;;102.80;2227.20;;;;;;5071291;28;20084;-75
2024/01/16 04:30:50;;;;;;;9.93;6.10;;;102.90;2227.20;;;;;;5090879;28;20438;-74
2024/01/16 04:33:16;;;;;;;7.35;4.72;;;102.80;2227.20;;;;;;5091102;28;20632;-75
2024/01/16 04:35:42;;;;;;;9.98;7.05;;;102.80;2227.20;;;;;;5084283;28;20489;-75
2024/01/16 04:38:08;;;;;;;8.27;4.25;;;102.70;2227.20;;;;;;5069688;28;20036;-74
2024/01/16 04:40:33;;;;;;;6.88;4.55;;;102.50;2227.20;;;;;;5077528;28;20084;-76
2024/01/16 04:43:00;;;;;;;11.55;6.60;;;102.60;2227.20;;;;;;5077699;28;20111;-74
2024/01/16 04:45:25;;;;;;;10.35;7.10;;;102.70;2227.20;;;;;;5076032;28;20064;-74
2024/01/16 04:47:51;;;;;;;7.03;4.78;;;102.70;2227.20;;;;;;5090762;28;20051;-75
2024/01/16 04:50:18;;;;;;;5.78;3.70;;;102.50;2227.20;;;;;;5090377;28;20112;-75
2024/01/16 04:52:43;;;;;;;5.93;3.83;;;77.70;2227.20;;;;;;5090732;28;20111;-75
2024/01/16 04:55:09;;;;;;;9.68;5.82;;;77.60;2227.20;;;;;;5077121;28;20063;-76
2024/01/16 04:57:35;;;;;;;27.15;13.00;;;102.40;2227.20;;;;;;5090839;28;20028;-74
2024/01/16 05:00:01;;;;;;;22.25;12.15;;;102.50;2227.20;;;;;;5069669;28;20040;-75
2024/01/16 05:02:26;;;;;;;11.15;6.72;;;102.60;2227.20;;;;;;5083527;28;20043;-73
2024/01/16 05:04:52;;;;;;;7.38;3.30;;;102.60;2227.20;;;;;;5090611;28;20032;-74
2024/01/16 05:07:20;;;;;;;6.85;3.80;;;102.40;2227.20;;;;;;5090295;28;20043;-76
2024/01/16 05:09:46;;;;;;;10.73;5.70;;;102.40;2227.20;;;;;;5090452;28;20020;-73
2024/01/16 05:12:13;;;;;;;20.90;11.70;;;102.50;2227.20;;;;;;5090233;28;20416;-74
2024/01/16 05:14:39;;;;;;;15.40;8.85;;;102.60;2227.20;;;;;;5090247;28;20055;-76
2024/01/16 05:17:04;;;;;;;10.55;7.13;;;102.50;2227.20;;;;;;5090250;28;20113;-73
2024/01/16 05:19:30;;;;;;;9.20;4.82;;;102.70;2227.20;;;;;;5089881;28;20050;-75
2024/01/16 05:21:56;;;;;;;4.88;2.70;;;102.60;2227.20;;;;;;5090355;28;20028;-76
2024/01/16 05:24:22;;;;;;;5.35;3.63;;;102.50;2227.20;;;;;;5090250;28;20099;-74
2024/01/16 05:26:47;;;;;;;7.85;4.10;;;102.50;2227.20;;;;;;5089934;28;20030;-75
2024/01/16 05:29:13;;;;;;;6.10;3.08;;;102.40;2227.20;;;;;;5090151;28;20024;-75
2024/01/16 05:31:42;;;;;;;8.18;5.88;;;102.60;2227.20;;;;;;5076332;28;20025;-75
2024/01/16 05:34:08;;;;;;;16.60;13.50;;;102.60;2227.20;;;;;;5076622;28;20050;-75
2024/01/16 05:36:34;;;;;;;15.43;10.25;;;102.60;2227.20;;;;;;5089246;28;20331;-74
2024/01/16 05:39:00;;;;;;;14.43;7.38;;;102.50;2227.20;;;;;;5081070;28;20031;-75
2024/01/16 05:41:26;;;;;;;12.55;9.65;;;102.40;2227.20;;;;;;5069835;28;20028;-74
2024/01/16 05:43:52;;;;;;;66.75;31.13;;;102.50;2227.20;;;;;;5069716;28;20543;-75
2024/01/16 05:46:18;;;;;;;54.08;29.67;;;102.50;2227.20;;;;;;5069195;28;20112;-75
2024/01/16 05:48:44;;;;;;;52.40;28.75;;;102.60;2227.20;;;;;;5077132;28;20023;-73
2024/01/16 05:51:10;;;;;;;17.48;10.65;;;102.70;2227.20;;;;;;5089501;28;20118;-76
2024/01/16 05:53:36;;;;;;;9.38;7.35;;;102.60;2227.20;;;;;;5090030;28;20023;-75
2024/01/16 05:56:01;;;;;;;6.90;5.20;;;102.60;2227.20;;;;;;5075882;28;20518;-74
2024/01/16 05:58:27;;;;;;;8.00;4.65;;;102.40;2227.20;;;;;;5089516;28;20016;-74
2024/01/16 06:00:53;;;;;;;8.55;5.85;;;102.40;2227.20;;;;;;5089552;28;20052;-76
2024/01/16 06:03:19;;;;;;;8.77;6.05;;;102.40;2227.20;;;;;;5088207;28;20044;-76
2024/01/16 06:05:44;;;;;;;14.05;9.05;;;102.50;2227.20;;;;;;5087293;28;20577;-74
2024/01/16 06:08:10;;;;;;;15.95;10.43;;;102.50;2227.20;;;;;;5076558;28;20095;-77
2024/01/16 06:10:36;;;;;;;8.05;5.72;;;102.60;2227.20;;;;;;5089367;28;20026;-77
2024/01/16 06:13:02;;;;;;;10.60;7.32;;;102.60;2227.20;;;;;;5081673;28;20074;-74
2024/01/16 06:15:27;;;;;;;13.38;8.98;;;102.50;2227.20;;;;;;5083050;28;20020;-75
2024/01/16 06:17:53;;;;;;;23.88;16.80;;;102.50;2227.20;;;;;;5089142;28;20016;-74
2024/01/16 06:20:20;;;;;;;12.90;8.55;;;102.50;2227.20;;;;;;5075453;28;20024;-74
2024/01/16 06:22:45;;;;;;;15.70;9.45;;;102.50;2227.20;;;;;;5089248;28;20056;-75
2024/01/16 06:25:11;;;;;;;196.30;106.40;;;102.60;2227.20;;;;;;5074456;28;20095;-76
2024/01/16 06:27:37;;;;;;;141.18;91.97;;;102.60;2227.20;;;;;;5074357;28;20363;-74
2024/01/16 06:30:03;;;;;;;69.53;39.85;;;102.60;2227.20;;;;;;5089175;28;20032;-74
2024/01/16 06:32:29;;;;;;;32.80;22.23;;;102.70;2227.20;;;;;;5075396;28;20046;-76
2024/01/16 06:34:55;;;;;;;245.65;165.00;;;102.70;2227.20;;;;;;5089344;28;20032;-76
2024/01/16 06:37:21;;;;;;;132.10;101.50;;;102.70;2227.20;;;;;;5088891;28;20378;-77
2024/01/16 06:39:46;;;;;;;72.72;50.35;;;102.60;2227.20;;;;;;5088987;28;20045;-75
2024/01/16 06:42:12;;;;;;;111.50;67.60;;;102.70;2227.20;;;;;;5089113;28;20065;-75
2024/01/16 06:44:38;;;;;;;14.32;11.73;;;102.80;2227.20;;;;;;5088593;28;20020;-76
2024/01/16 06:47:04;;;;;;;83.60;56.92;;;102.80;2227.20;;;;;;5089016;28;20557;-75
2024/01/16 06:49:30;;;;;;;210.15;148.10;;;102.70;2227.20;;;;;;5087082;28;20048;-74
2024/01/16 06:51:57;;;;;;;290.27;206.80;;;102.70;2227.20;;;;;;5068808;28;20107;-76
2024/01/16 06:54:23;;;;;;;78.25;44.25;;;102.80;2227.20;;;;;;5068857;28;20455;-75
2024/01/16 06:56:49;;;;;;;76.53;44.25;;;102.80;2227.20;;;;;;5068761;28;20111;-76
2024/01/16 06:59:16;;;;;;;79.38;47.30;;;102.80;2227.20;;;;;;5082584;28;20102;-75
2024/01/16 07:01:41;;;;;;;59.38;39.00;;;102.80;2227.20;;;;;;5088675;28;20077;-78
2024/01/16 07:04:07;;;;;;;20.58;15.75;;;102.90;2227.20;;;;;;5074750;28;20493;-78
2024/01/16 07:06:33;;;;;;;26.30;16.25;;;102.70;2227.20;;;;;;5088852;28;20547;-77
2024/01/16 07:08:58;;;;;;;18.25;16.40;;;102.90;2227.20;;;;;;5074889;28;20405;-76
2024/01/16 07:11:24;;;;;;;21.50;17.38;;;102.90;2227.20;;;;;;5085401;28;20035;-77
2024/01/16 07:13:50;;;;;;;31.42;22.25;;;102.90;2227.20;;;;;;5081972;28;20028;-76
2024/01/16 07:16:16;;;;;;;80.40;48.22;;;102.90;2227.20;;;;;;5088982;28;20462;-74
2024/01/16 07:18:41;;;;;;;131.45;81.85;;;103.00;2227.20;;;;;;5084605;28;20056;-76
2024/01/16 07:21:20;;;;;;;146.02;89.93;;;103.10;2227.20;;;;;;5083900;28;20033;-74
2024/01/16 07:23:47;;;;;;;509.10;282.98;;;103.10;2227.20;;;;;;5072758;28;20111;-77
2024/01/16 07:26:13;;;;;;;445.50;293.20;;;103.10;2227.20;;;;;;5092530;28;20062;-75
2024/01/16 07:28:39;;;;;;;235.75;153.77;;;103.10;2227.20;;;;;;5092150;28;20016;-73
2024/01/16 07:31:05;;;;;;;157.65;106.47;;;103.10;2227.20;;;;;;5090961;28;20389;-75
2024/01/16 07:33:32;;;;;;;178.43;107.03;;;103.10;2227.20;;;;;;5091820;28;20367;-74
2024/01/16 07:35:58;;;;;;;187.15;112.47;;;103.00;2227.20;;;;;;5083120;28;20074;-73
2024/01/16 07:38:23;;;;;;;160.65;101.22;;;103.10;2227.20;;;;;;5087864;28;20032;-74
2024/01/16 07:40:49;;;;;;;150.95;92.68;;;103.20;2227.20;;;;;;5091935;28;20032;-75
2024/01/16 07:43:15;;;;;;;108.95;68.68;;;103.30;2227.20;;;;;;5092101;28;20031;-74
2024/01/16 07:45:41;;;;;;;109.55;70.68;;;128.00;2252.80;;;;;;5091817;28;20028;-74
2024/01/16 07:48:08;;;;;;;94.55;61.42;;;128.20;2252.80;;;;;;5091428;28;20065;-75
2024/01/16 07:50:34;;;;;;;97.53;59.22;;;128.20;2252.80;;;;;;5087885;28;20092;-74
2024/01/16 07:52:59;;;;;;;68.30;46.80;;;128.30;2252.80;;;;;;5084021;28;20530;-74
2024/01/16 07:55:26;;;;;;;65.53;45.72;;;128.30;2252.80;;;;;;5090342;28;20092;-77
2024/01/16 07:57:53;;;;;;;61.35;44.75;;;128.50;2252.80;;;;;;5078211;28;20016;-75
2024/01/16 08:00:19;;;;;;;50.75;34.22;;;128.70;2252.80;;;;;;5091628;28;20134;-75
2024/01/16 08:02:45;;;;;;;87.75;64.60;;;128.60;2252.80;;;;;;5091120;28;20115;-75
2024/01/16 08:05:11;;;;;;;76.35;59.40;;;128.80;2252.80;;;;;;5089839;28;20048;-74
2024/01/16 08:07:36;;;;;;;44.47;32.10;;;128.80;2252.80;;;;;;5071999;28;20019;-74
2024/01/16 08:10:03;;;;;;;38.63;27.75;;;128.90;2252.80;;;;;;5084389;28;20028;-75
2024/01/16 08:12:28;;;;;;;53.70;34.17;;;128.80;2252.80;;;;;;5071576;28;20095;-76
2024/01/16 08:14:54;;;;;;;50.53;31.73;;;128.90;2252.80;;;;;;5078395;28;20159;-76
2024/01/16 08:17:20;;;;;;;29.00;21.38;;;153.60;2252.80;;;;;;5078940;28;20103;-76
2024/01/16 08:19:46;;;;;;;33.10;23.27;;;153.70;2252.80;;;;;;5080077;28;20374;-74
2024/01/16 08:22:11;;;;;;;28.15;20.77;;;153.80;2252.80;;;;;;5084388;28;20028;-72
2024/01/16 08:24:37;;;;;;;19.70;14.27;;;153.80;2252.80;;;;;;5080288;28;20027;-75
2024/01/16 08:27:03;;;;;;;49.50;32.95;;;154.00;2252.80;;;;;;5090313;28;20058;-75
2024/01/16 08:29:29;;;;;;;25.95;16.40;;;154.20;2252.80;;;;;;5090839;28;20099;-78
2024/01/16 08:31:54;;;;;;;20.05;13.55;;;154.20;2252.80;;;;;;5077339;28;20036;-74
2024/01/16 08:34:20;;;;;;;44.83;36.67;;;154.20;2252.80;;;;;;5079875;28;20054;-77
2024/01/16 08:36:46;;;;;;;50.25;36.22;;;154.40;2252.80;;;;;;5081907;28;20021;-78
2024/01/16 08:39:12;;;;;;;49.03;31.58;;;179.30;2252.80;;;;;;5090733;28;20051;-79
2024/01/16 08:41:38;;;;;;;24.00;17.25;;;179.70;2252.80;;;;;;5088745;28;20056;-79
2024/01/16 08:44:04;;;;;;;22.92;15.88;;;179.90;2252.80;;;;;;5079525;28;20083;-78
2024/01/16 08:46:29;;;;;;;41.55;26.67;;;179.90;2252.80;;;;;;5084233;28;20517;-79
2024/01/16 08:48:55;;;;;;;41.25;22.02;;;180.10;2252.80;;;;;;5072933;28;20296;-79
2024/01/16 08:51:21;;;;;;;42.13;30.75;;;204.90;2252.80;;;;;;5081425;28;20381;-79
2024/01/16 08:53:47;;;;;;;46.47;33.70;;;205.10;2252.80;;;;;;5090767;28;20443;-77
2024/01/16 08:56:12;;;;;;;48.22;32.88;;;205.40;2252.80;;;;;;5090806;28;20522;-77
2024/01/16 08:58:40;;;;;;;59.28;44.42;;;205.20;2252.80;;;;;;5090128;28;20062;-78
2024/01/16 09:01:06;;;;;;;39.10;29.40;;;230.40;2252.80;;;;;;5078879;28;20131;-80
2024/01/16 09:03:33;;;;;;;48.85;35.75;;;230.90;2252.80;;;;;;5080340;28;20054;-79
2024/01/16 09:05:59;;;;;;;40.78;28.80;;;230.70;2252.80;;;;;;5068752;28;20041;-80
2024/01/16 09:08:26;;;;;;;36.65;29.52;;;231.20;2252.80;;;;;;5082123;28;20020;-78
2024/01/16 09:10:53;;;;;;;42.80;31.65;;;256.40;2252.80;;;;;;5088303;28;20020;-80
2024/01/16 09:13:20;;;;;;;40.83;29.73;;;256.30;2252.80;;;;;;5090229;28;20024;-79
2024/01/16 09:15:47;;;;;;;36.38;29.23;;;282.40;2278.40;;;;;;5090317;28;20047;-80
2024/01/16 09:18:12;;;;;;;34.33;26.77;;;307.50;2304.00;;;;;;5089280;28;20073;-80
2024/01/16 09:20:38;;;;;;;48.78;21.30;;;308.10;2252.80;;;;;;5089905;28;20020;-81
2024/01/16 09:23:04;;;;;;;23.00;18.50;;;307.70;2304.00;;;;;;5077091;28;20485;-81
2024/01/16 09:25:30;;;;;;;145.55;74.72;;;333.10;2278.40;;;;;;5089256;28;20043;-80
2024/01/16 09:27:56;;;;;;;54.22;34.10;;;333.70;2227.20;;;;;;5088977;28;20523;-79
2024/01/16 09:30:22;;;;;;;26.02;21.00;;;333.40;2227.20;;;;;;5089830;28;20026;-81
2024/01/16 09:32:51;;;;;;;33.63;24.58;;;333.60;2176.00;;;;;;5089771;28;20016;-79
2024/01/16 09:35:17;;;;;;;28.00;23.30;;;333.60;2176.00;;;;;;5073249;28;20494;-83
2024/01/16 09:37:43;;;;;;;27.58;23.42;;;333.40;2176.00;;;;;;5080028;28;20137;-82
2024/01/16 09:40:09;;;;;;;24.85;21.30;;;358.90;2124.80;;;;;;5075759;28;20492;-83
2024/01/16 09:42:35;;;;;;;29.38;22.33;;;384.70;2073.60;;;;;;5081714;28;20019;-80
2024/01/16 09:45:04;;;;;;;30.00;25.02;;;384.60;1996.80;;;;;;5084681;28;20509;-78
2024/01/16 09:47:34;;;;;;;25.25;22.25;;;384.20;2048.00;;;;;;5071032;28;20100;-82
2024/01/16 09:50:02;;;;;;;27.33;24.33;;;384.90;1996.80;;;;;;5072019;28;20052;-84
2024/01/16 09:52:29;;;;;;;25.45;21.55;;;410.00;1971.20;;;;;;5071875;28;20017;-78
2024/01/16 09:54:55;;;;;;;22.73;18.17;;;410.20;1894.40;;;;;;5071779;28;20029;-78
2024/01/16 09:57:25;;;;;;;21.65;17.10;;;384.90;1920.00;;;;;;5069504;28;20028;-84
2024/01/16 09:59:57;;;;;;;54.03;39.40;;;384.50;1920.00;;;;;;5068443;28;20021;-82
2024/01/16 10:02:23;;;;;;;28.23;21.33;;;359.30;1920.00;;;;;;5069198;28;20032;-79
2024/01/16 10:04:49;;;;;;;23.92;18.00;;;358.80;1971.20;;;;;;5082792;28;20040;-82
2024/01/16 10:07:17;;;;;;;25.20;17.35;;;333.40;2022.40;;;;;;5077349;28;20540;-80
2024/01/16 10:09:44;;;;;;;25.88;15.93;;;308.00;2022.40;;;;;;5089386;28;20127;-82
2024/01/16 10:12:10;;;;;;;23.33;15.90;;;307.20;2073.60;;;;;;5089492;28;20055;-82
2024/01/16 10:14:38;;;;;;;32.28;22.40;;;281.70;2099.20;;;;;;5089356;28;20077;-81
2024/01/16 10:17:38;;;;;;;23.17;17.52;;;256.70;2124.80;;;;;;5089593;28;20048;-81
2024/01/16 10:19:58;;;;;;;20.63;15.15;;;256.20;2176.00;;;;;;5088114;28;20478;-82
2024/01/16 10:22:25;;;;;;;20.60;14.18;;;231.00;2227.20;;;;;;5089843;28;20028;-83
2024/01/16 10:25:07;;;;;;;19.95;12.88;;;230.90;2252.80;;;;;;5089239;28;20059;-83
2024/01/16 10:27:33;;;;;;;27.88;19.20;;;230.50;2252.80;;;;;;5089608;28;20028;-82
2024/01/16 10:29:59;;;;;;;39.08;28.13;;;230.40;2252.80;;;;;;5089221;28;20091;-83
2024/01/16 10:32:33;;;;;;;66.00;44.60;;;205.70;2252.80;;;;;;5069212;28;20059;-82
2024/01/16 10:35:07;;;;;;;79.13;47.60;;;205.50;2252.80;;;;;;5081093;28;20039;-83
2024/01/16 10:37:50;;;;;;;131.23;86.70;;;205.10;2252.80;;;;;;5069094;28;20552;-81
2024/01/16 10:40:20;;;;;;;63.15;38.03;;;205.00;2252.80;;;;;;5073583;28;20031;-81
2024/01/16 10:42:57;;;;;;;99.95;58.90;;;204.90;2227.20;;;;;;5089293;28;20032;-83
2024/01/16 10:45:23;;;;;;;54.38;33.30;;;179.80;2252.80;;;;;;5089364;28;20059;-80
2024/01/16 10:48:00;;;;;;;67.97;40.97;;;179.60;2201.60;;;;;;5089030;28;20121;-78
2024/01/16 10:50:27;;;;;;;40.15;24.38;;;179.90;2150.40;;;;;;5080809;28;20028;-83
2024/01/16 10:52:55;;;;;;;30.60;23.13;;;180.00;2124.80;;;;;;5093338;28;20027;-80
2024/01/16 10:55:22;;;;;;;20.33;14.73;;;179.70;2099.20;;;;;;5084252;28;20025;-83
2024/01/16 10:57:50;;;;;;;105.43;52.65;;;179.80;2124.80;;;;;;5072992;28;20397;-78
2024/01/16 11:00:19;;;;;;;77.63;45.55;;;179.80;2176.00;;;;;;5082577;28;20103;-81
2024/01/16 11:03:07;;;;;;;34.78;20.10;;;179.70;2227.20;;;;;;5092862;28;20040;-79
2024/01/16 11:05:35;;;;;;;9.82;5.57;;;179.50;2124.80;;;;;;5080191;28;20041;-82
2024/01/16 11:08:02;;;;;;;52.65;32.25;;;179.30;2048.00;;;;;;5079685;28;20103;-76
2024/01/16 11:10:30;;;;;;;28.08;18.67;;;154.50;2176.00;;;;;;5093103;28;20028;-82
2024/01/16 11:13:00;;;;;;;45.75;31.90;;;179.30;2099.20;;;;;;5080019;28;20343;-83
2024/01/16 11:15:31;;;;;;;32.70;21.08;;;154.50;2176.00;;;;;;5093354;28;20119;-81
2024/01/16 11:17:57;;;;;;;50.90;28.13;;;154.50;2099.20;;;;;;5093196;28;20012;-79
2024/01/16 11:20:27;;;;;;;43.92;28.08;;;154.50;2176.00;;;;;;5093096;28;20089;-84
2024/01/16 11:22:59;;;;;;;26.00;17.85;;;154.50;2201.60;;;;;;5089771;28;20413;-81
2024/01/16 11:25:35;;;;;;;27.13;18.57;;;179.20;2176.00;;;;;;5089345;28;20032;-84
2024/01/16 11:28:11;;;;;;;38.10;24.27;;;179.30;2176.00;;;;;;5083295;28;20463;-82
2024/01/16 11:30:37;;;;;;;19.92;14.10;;;179.30;2201.60;;;;;;5090666;28;20028;-77
2024/01/16 11:33:06;;;;;;;27.60;15.30;;;179.30;2150.40;;;;;;5092589;28;20020;-84
2024/01/16 11:35:36;;;;;;;28.40;17.08;;;179.30;2176.00;;;;;;5079012;28;20024;-82
2024/01/16 11:38:20;;;;;;;46.40;23.88;;;179.30;2201.60;;;;;;5092772;28;20020;-83
2024/01/16 11:40:47;;;;;;;42.45;22.92;;;179.20;2227.20;;;;;;5092561;28;20029;-79
2024/01/16 11:43:32;;;;;;;101.85;48.58;;;154.40;2201.60;;;;;;5072908;28;20164;-84
2024/01/16 11:45:58;;;;;;;52.53;30.15;;;154.40;2227.20;;;;;;5092402;28;20033;-84
2024/01/16 11:48:24;;;;;;;30.48;17.40;;;154.40;2176.00;;;;;;5092252;28;20017;-84
2024/01/16 11:50:52;;;;;;;29.92;17.77;;;154.20;2150.40;;;;;;5081518;28;20021;-82
2024/01/16 11:53:36;;;;;;;25.05;15.40;;;154.30;2201.60;;;;;;5070718;28;20025;-80
2024/01/16 11:56:07;;;;;;;44.30;23.05;;;154.30;2150.40;;;;;;5085546;28;20070;-80
2024/01/16 11:58:51;;;;;;;20.85;11.95;;;154.20;2176.00;;;;;;5084609;28;20017;-83
2024/01/16 12:01:20;;;;;;;22.42;12.45;;;154.20;2176.00;;;;;;5087443;28;20035;-85